Impacts TAF Board
For situational awareness. Not to be used for flight planning purposes.
IDs:

KCSG - Columbus Arpt, GA, US

Issued at 1737 UTC 20 May 2022
Updated at 1817 UTC 20 May 2022
Potential Impact None Slight Moderate High
Time1751Z 20/19Z 20/20Z 20/21Z 20/22Z 20/23Z 21/00Z 21/01Z 21/02Z 21/03Z 21/04Z 21/05Z 21/06Z 21/07Z>>
Type OBS PRVL PRVL PRVL PRVL PRVL PRVL PRVL PRVL PRVL PRVL PRVL PRVL PRVL
VIS 10 >6 >6 >6 >6 >6 >6 >6 >6 >6 >6 >6 >6 >6
CIG -- -- -- -- -- -- -- -- -- -- -- -- -- --
Cover FEW FEW FEW FEW FEW FEW FEW FEW FEW FEW FEW FEW FEW FEW
FltCat VFR VFR VFR VFR VFR VFR VFR VFR VFR VFR VFR VFR VFR VFR
WX -- -- -- -- -- -- -- -- -- -- -- -- -- --
WDir 220 210 210 210 210 210 210 210 190 190 190 190 190 190
WSpd 10 9 9 9 9 9 9 9 7 7 7 7 7 7
WGst 18 -- -- -- -- -- -- -- -- -- -- -- -- --
WSHgt -- -- -- -- -- -- -- -- -- -- -- -- -- --
WSDir -- -- -- -- -- -- -- -- -- -- -- -- -- --
WSSpd -- -- -- -- -- -- -- -- -- -- -- -- -- --
Raw TAF
KCSG 201737Z 2018/2118 21009KT P6SM FEW045
  FM210200 19007KT P6SM FEW250
  FM211100 17004KT P6SM BKN025
  FM211700 19005KT P6SM BKN100
  PROB30 2117/2118 4SM -SHRA BR OVC025


Raw METAR
KCSG 201751Z 22010G18KT 10SM FEW055 31/17 A2998 RMK AO2 SLP146 T03110167 10317 20222 58004
KCSG 201651Z 21009KT 10SM FEW043 30/17 A3000 RMK AO2 SLP151 T03000172
KCSG 201551Z 18006G16KT 10SM FEW030 SCT036 28/19 A2999 RMK AO2 SLP150 T02780194
KCSG 201546Z 20008G16KT 10SM SCT032 BKN040 29/19 A2999 RMK AO2

METAR Board
Radar Display
Forecast Discussion
For situational awareness. Not to be used for flight planning purposes.